createdAt,value
2018-11-03T00:00:46.685Z,14.40
2018-11-03T00:03:15.441Z,16.30
2018-11-03T00:05:44.133Z,14.90
2018-11-03T00:08:12.615Z,13.43
2018-11-03T00:10:41.287Z,15.10
2018-11-03T00:13:09.736Z,15.80
2018-11-03T00:15:38.287Z,14.67
2018-11-03T00:18:07.091Z,16.50
2018-11-03T00:20:35.854Z,16.03
2018-11-03T00:23:04.575Z,14.60
2018-11-03T00:25:33.314Z,15.73
2018-11-03T00:28:01.985Z,16.33
2018-11-03T00:30:30.461Z,15.17
2018-11-03T00:32:59.026Z,13.93
2018-11-03T00:35:27.624Z,14.17
2018-11-03T00:37:56.424Z,14.50
2018-11-03T00:40:24.947Z,14.10
2018-11-03T00:42:53.599Z,13.40
2018-11-03T00:45:22.395Z,15.67
2018-11-03T00:47:51.311Z,14.87
2018-11-03T00:50:19.994Z,12.67
2018-11-03T00:52:49.283Z,15.63
2018-11-03T00:55:17.975Z,13.73
2018-11-03T00:57:46.527Z,14.47
2018-11-03T01:00:18.195Z,15.37
2018-11-03T01:02:47.855Z,14.20
2018-11-03T01:05:16.554Z,15.57
2018-11-03T01:07:45.545Z,16.93
2018-11-03T01:10:14.318Z,14.83
2018-11-03T01:12:43.134Z,12.77
2018-11-03T01:15:14.115Z,14.40
2018-11-03T01:17:43.050Z,18.27
2018-11-03T01:20:13.542Z,14.53
2018-11-03T01:22:42.436Z,16.33
2018-11-03T01:25:11.477Z,16.30
2018-11-03T01:27:40.331Z,14.20
2018-11-03T01:30:11.809Z,13.97
2018-11-03T01:32:40.356Z,13.77
2018-11-03T01:35:09.715Z,16.13
2018-11-03T01:37:39.268Z,16.10
2018-11-03T01:40:08.809Z,17.77
2018-11-03T01:42:37.733Z,19.37
2018-11-03T01:45:06.427Z,17.83
2018-11-03T01:47:35.230Z,17.37
2018-11-03T01:50:04.170Z,15.10
2018-11-03T01:52:32.701Z,14.37
2018-11-03T01:55:01.199Z,16.27
2018-11-03T01:57:30.222Z,14.67
2018-11-03T01:59:58.730Z,15.20
2018-11-03T02:02:27.360Z,16.10
2018-11-03T02:04:55.940Z,14.80
2018-11-03T02:07:24.541Z,15.17
2018-11-03T02:09:53.113Z,14.93
2018-11-03T02:12:21.584Z,14.37
2018-11-03T02:14:50.179Z,14.50
2018-11-03T02:17:18.959Z,15.50
2018-11-03T02:19:47.500Z,15.03
2018-11-03T02:22:15.966Z,13.97
2018-11-03T02:24:44.725Z,16.23
2018-11-03T02:27:13.239Z,15.73
2018-11-03T02:29:41.783Z,14.73
2018-11-03T02:32:10.311Z,14.13
2018-11-03T02:34:38.822Z,14.80
2018-11-03T02:37:07.310Z,14.30
2018-11-03T02:39:36.021Z,12.50
2018-11-03T02:42:04.742Z,13.13
2018-11-03T02:44:33.283Z,13.23
2018-11-03T02:47:01.747Z,12.60
2018-11-03T02:49:30.341Z,15.67
2018-11-03T02:51:58.787Z,13.83
2018-11-03T02:54:27.403Z,13.13
2018-11-03T02:56:55.993Z,12.30
2018-11-03T02:59:24.503Z,11.67
2018-11-03T03:01:53.070Z,12.87
2018-11-03T03:04:21.630Z,13.87
2018-11-03T03:06:50.117Z,15.50
2018-11-03T03:09:18.566Z,12.57
2018-11-03T03:11:47.342Z,12.77
2018-11-03T03:14:15.798Z,11.67
2018-11-03T03:16:44.259Z,12.27
2018-11-03T03:19:12.967Z,12.57
2018-11-03T03:21:41.419Z,12.47
2018-11-03T03:24:09.883Z,14.33
2018-11-03T03:26:38.585Z,13.60
2018-11-03T03:29:07.201Z,15.60
2018-11-03T03:31:35.859Z,13.20
2018-11-03T03:34:04.625Z,12.23
2018-11-03T03:36:33.103Z,11.93
2018-11-03T03:39:01.613Z,14.97
2018-11-03T03:41:30.181Z,11.47
2018-11-03T03:43:58.746Z,12.37
2018-11-03T03:46:27.312Z,12.73
2018-11-03T03:48:55.891Z,12.93
2018-11-03T03:51:24.340Z,12.03
2018-11-03T03:53:52.869Z,11.80
2018-11-03T03:56:22.504Z,12.20
2018-11-03T03:58:51.012Z,11.50
2018-11-03T04:01:19.767Z,14.57
2018-11-03T04:03:48.993Z,11.70
2018-11-03T04:06:17.549Z,14.23
2018-11-03T04:08:46.043Z,11.00
2018-11-03T04:11:14.645Z,12.80
2018-11-03T04:13:43.330Z,12.27
2018-11-03T04:16:11.842Z,12.07
2018-11-03T04:18:41.001Z,13.87
2018-11-03T04:21:09.647Z,11.70
2018-11-03T04:23:38.109Z,11.73
2018-11-03T04:26:06.803Z,12.20
2018-11-03T04:28:35.430Z,11.80
2018-11-03T04:31:03.888Z,11.97
2018-11-03T04:33:32.550Z,11.63
2018-11-03T04:36:01.333Z,13.43
2018-11-03T04:38:29.915Z,13.27
2018-11-03T04:40:58.383Z,13.07
2018-11-03T04:43:26.877Z,14.40
2018-11-03T04:45:55.473Z,12.50
2018-11-03T04:48:24.003Z,11.60
2018-11-03T04:50:52.622Z,14.20
2018-11-03T04:53:21.079Z,13.57
2018-11-03T04:55:49.855Z,11.50
2018-11-03T04:58:18.302Z,13.57
2018-11-03T05:00:46.749Z,14.07
2018-11-03T05:03:15.332Z,11.53
2018-11-03T05:05:43.837Z,11.80
2018-11-03T05:08:12.394Z,13.97
2018-11-03T05:10:40.901Z,11.60
2018-11-03T05:13:09.562Z,12.43
2018-11-03T05:15:38.143Z,12.07
2018-11-03T05:18:06.603Z,12.40
2018-11-03T05:20:35.091Z,13.33
2018-11-03T05:23:03.768Z,11.87
2018-11-03T05:25:32.227Z,12.00
2018-11-03T05:28:00.781Z,11.00
2018-11-03T05:30:29.199Z,11.77
2018-11-03T05:32:57.700Z,12.53
2018-11-03T05:35:26.177Z,12.83
2018-11-03T05:37:54.782Z,12.37
2018-11-03T05:40:23.255Z,14.57
2018-11-03T05:42:51.702Z,12.13
2018-11-03T05:45:20.259Z,12.17
2018-11-03T05:47:48.675Z,10.50
2018-11-03T05:50:17.375Z,10.90
2018-11-03T05:52:45.991Z,11.03
2018-11-03T05:55:14.745Z,10.30
2018-11-03T05:57:43.211Z,11.80
2018-11-03T06:00:11.719Z,11.20
2018-11-03T06:02:40.220Z,11.83
2018-11-03T06:05:08.705Z,11.53
2018-11-03T06:07:37.147Z,14.70
2018-11-03T06:10:06.219Z,15.70
2018-11-03T06:12:34.654Z,13.47
2018-11-03T06:15:03.096Z,13.77
2018-11-03T06:17:31.572Z,15.20
2018-11-03T06:20:00.167Z,22.03
2018-11-03T06:22:28.621Z,12.33
2018-11-03T06:24:57.428Z,13.07
2018-11-03T06:27:26.199Z,11.77
2018-11-03T06:29:54.645Z,11.57
2018-11-03T06:32:23.075Z,12.33
2018-11-03T06:34:51.583Z,13.80
2018-11-03T06:37:20.242Z,10.93
2018-11-03T06:39:48.754Z,10.53
2018-11-03T06:42:17.387Z,11.30
2018-11-03T06:44:45.845Z,10.07
2018-11-03T06:47:14.513Z,10.27
2018-11-03T06:49:43.150Z,10.77
2018-11-03T06:52:11.599Z,10.20
2018-11-03T06:54:40.227Z,12.23
2018-11-03T06:57:08.628Z,11.63
2018-11-03T06:59:37.247Z,9.70
2018-11-03T07:02:05.703Z,12.03
2018-11-03T07:04:34.171Z,10.03
2018-11-03T07:07:02.717Z,9.70
2018-11-03T07:09:31.297Z,10.50
2018-11-03T07:11:59.769Z,10.57
2018-11-03T07:14:28.358Z,12.23
2018-11-03T07:16:56.789Z,15.07
2018-11-03T07:19:25.520Z,10.07
2018-11-03T07:21:54.041Z,8.90
2018-11-03T07:24:22.678Z,9.37
2018-11-03T07:26:51.273Z,11.03
2018-11-03T07:29:19.926Z,10.50
2018-11-03T07:31:48.943Z,19.33
2018-11-03T07:34:17.462Z,14.80
2018-11-03T07:36:46.195Z,11.87
2018-11-03T07:39:16.519Z,12.37
2018-11-03T07:41:45.259Z,10.30
2018-11-03T07:44:13.782Z,12.60
2018-11-03T07:46:42.605Z,14.37
2018-11-03T07:49:16.095Z,13.53
2018-11-03T07:51:45.927Z,11.17
2018-11-03T07:54:15.455Z,10.97
2018-11-03T07:56:43.895Z,10.87
2018-11-03T07:59:12.466Z,10.17
2018-11-03T08:01:40.960Z,11.37
2018-11-03T08:04:09.793Z,11.43
2018-11-03T08:06:38.607Z,10.13
2018-11-03T08:09:08.724Z,13.87
2018-11-03T08:11:37.380Z,11.17
2018-11-03T08:14:05.994Z,11.47
2018-11-03T08:16:34.741Z,12.97
2018-11-03T08:19:03.233Z,19.23
2018-11-03T08:21:31.872Z,18.30
2018-11-03T08:24:00.411Z,32.67
2018-11-03T08:26:29.155Z,20.20
2018-11-03T08:28:57.836Z,37.20
2018-11-03T08:31:26.821Z,28.93
2018-11-03T08:33:55.491Z,19.20
2018-11-03T08:36:24.196Z,13.67
2018-11-03T08:38:53.779Z,14.80
2018-11-03T08:41:22.329Z,13.63
2018-11-03T08:43:50.778Z,13.77
2018-11-03T08:46:19.524Z,15.17
2018-11-03T08:48:48.091Z,21.47
2018-11-03T08:51:16.667Z,25.30
2018-11-03T08:53:45.107Z,31.57
2018-11-03T08:56:13.655Z,25.60
2018-11-03T08:58:42.278Z,16.33
2018-11-03T09:01:10.924Z,17.40
2018-11-03T09:03:39.602Z,32.00
2018-11-03T09:06:08.045Z,20.13
2018-11-03T09:08:36.870Z,24.43
2018-11-03T09:11:05.553Z,17.70
2018-11-03T09:13:34.113Z,20.93
2018-11-03T09:16:02.545Z,15.10
2018-11-03T09:18:31.200Z,17.77
2018-11-03T09:20:59.810Z,13.20
2018-11-03T09:23:28.286Z,13.03
2018-11-03T09:25:56.785Z,12.37
2018-11-03T09:28:25.358Z,14.23
2018-11-03T09:30:53.908Z,27.23
2018-11-03T09:33:22.489Z,18.67
2018-11-03T09:35:50.943Z,26.27
2018-11-03T09:38:19.527Z,26.87
2018-11-03T09:40:48.107Z,17.47
2018-11-03T09:43:16.645Z,12.60
2018-11-03T09:45:45.271Z,14.13
2018-11-03T09:48:13.783Z,21.57
2018-11-03T09:50:42.616Z,27.90
2018-11-03T09:53:11.207Z,25.20
2018-11-03T09:55:39.630Z,25.97
2018-11-03T09:58:08.293Z,15.40
2018-11-03T10:00:37.119Z,14.70
2018-11-03T10:03:05.636Z,17.10
2018-11-03T10:05:34.225Z,16.27
2018-11-03T10:08:02.791Z,18.13
2018-11-03T10:10:31.222Z,16.90
2018-11-03T10:12:59.856Z,18.77
2018-11-03T10:15:28.573Z,14.73
2018-11-03T10:17:57.144Z,21.73
2018-11-03T10:20:25.762Z,13.93
2018-11-03T10:22:54.734Z,15.47
2018-11-03T10:25:23.511Z,15.23
2018-11-03T10:27:52.117Z,16.60
2018-11-03T10:30:20.579Z,16.77
2018-11-03T10:32:49.081Z,21.53
2018-11-03T10:35:17.758Z,20.87
2018-11-03T10:37:46.226Z,18.60
2018-11-03T10:40:16.237Z,14.77
2018-11-03T10:42:44.771Z,16.57
2018-11-03T10:45:14.374Z,14.73
2018-11-03T10:47:43.127Z,17.07
2018-11-03T10:50:15.485Z,19.30
2018-11-03T10:52:44.603Z,19.63
2018-11-03T10:55:14.275Z,19.03
2018-11-03T10:57:42.878Z,21.07
2018-11-03T11:00:19.077Z,20.87
2018-11-03T11:02:53.056Z,21.73
2018-11-03T11:05:26.954Z,19.63
2018-11-03T11:08:00.985Z,16.67
2018-11-03T11:10:35.108Z,19.83
2018-11-03T11:13:09.005Z,17.97
2018-11-03T11:15:37.440Z,19.00
2018-11-03T11:18:06.284Z,20.40
2018-11-03T11:20:34.839Z,19.33
2018-11-03T11:23:03.428Z,18.70
2018-11-03T11:25:32.041Z,17.40
2018-11-03T11:28:00.677Z,19.30
2018-11-03T11:30:34.715Z,20.67
2018-11-03T11:33:03.293Z,18.83
2018-11-03T11:35:31.982Z,18.90
2018-11-03T11:38:00.770Z,20.63
2018-11-03T11:40:29.392Z,19.17
2018-11-03T11:42:57.956Z,20.43
2018-11-03T11:45:26.825Z,19.50
2018-11-03T11:47:55.269Z,19.30
2018-11-03T11:50:23.836Z,23.27
2018-11-03T11:52:52.871Z,19.43
2018-11-03T11:55:21.379Z,19.27
2018-11-03T11:57:50.250Z,21.13
2018-11-03T12:00:18.763Z,19.70
2018-11-03T12:02:47.499Z,18.80
2018-11-03T12:05:15.968Z,22.90
2018-11-03T12:07:44.471Z,19.63
2018-11-03T12:10:13.046Z,18.67
2018-11-03T12:12:41.695Z,19.00
2018-11-03T12:15:10.971Z,20.33
2018-11-03T12:17:39.446Z,20.00
2018-11-03T12:20:08.101Z,19.90
2018-11-03T12:22:36.830Z,19.23
2018-11-03T12:25:06.038Z,19.67
2018-11-03T12:27:34.465Z,20.10
2018-11-03T12:30:03.318Z,20.43
2018-11-03T12:32:31.994Z,19.00
2018-11-03T12:35:00.511Z,21.50
2018-11-03T12:37:29.174Z,24.57
2018-11-03T12:39:57.669Z,22.27
2018-11-03T12:42:26.142Z,20.47
2018-11-03T12:44:54.670Z,23.47
2018-11-03T12:47:23.315Z,22.27
2018-11-03T12:49:56.101Z,23.37
2018-11-03T12:52:24.584Z,22.03
2018-11-03T12:54:53.059Z,21.80
2018-11-03T12:57:21.837Z,23.53
2018-11-03T12:59:50.297Z,20.87
2018-11-03T13:02:18.725Z,22.50
2018-11-03T13:04:47.406Z,25.73
2018-11-03T13:07:16.005Z,22.23
2018-11-03T13:09:44.634Z,26.47
2018-11-03T13:12:13.154Z,23.70
2018-11-03T13:14:41.734Z,27.43
2018-11-03T13:17:10.354Z,29.73
2018-11-03T13:19:38.834Z,29.97
2018-11-03T13:22:07.287Z,29.93
2018-11-03T13:24:35.823Z,31.00
2018-11-03T13:27:04.222Z,43.53
2018-11-03T13:29:32.799Z,32.83
2018-11-03T13:32:01.231Z,32.97
2018-11-03T13:34:29.668Z,34.50
2018-11-03T13:36:58.140Z,26.60
2018-11-03T13:39:26.701Z,28.93
2018-11-03T13:41:55.170Z,27.33
2018-11-03T13:44:23.644Z,26.23
2018-11-03T13:46:52.083Z,27.80
2018-11-03T13:49:20.720Z,31.87
2018-11-03T13:51:49.311Z,27.13
2018-11-03T13:54:17.928Z,24.17
2018-11-03T13:56:46.490Z,24.50
2018-11-03T13:59:14.985Z,25.17
2018-11-03T14:01:43.458Z,24.00
2018-11-03T14:04:12.047Z,28.33
2018-11-03T14:06:41.395Z,22.33
2018-11-03T14:09:10.805Z,22.00
2018-11-03T14:11:40.109Z,23.83
2018-11-03T14:14:09.099Z,23.53
2018-11-03T14:16:37.586Z,24.33
2018-11-03T14:19:06.483Z,23.40
2018-11-03T14:21:34.935Z,26.70
2018-11-03T14:24:03.360Z,25.00
2018-11-03T14:26:31.952Z,25.20
2018-11-03T14:29:00.743Z,23.07
2018-11-03T14:31:29.082Z,23.83
2018-11-03T14:33:57.528Z,25.57
2018-11-03T14:36:26.168Z,23.77
2018-11-03T14:38:54.631Z,26.67
2018-11-03T14:41:23.221Z,28.90
2018-11-03T14:43:51.683Z,28.13
2018-11-03T14:46:20.213Z,26.90
2018-11-03T14:48:48.631Z,30.23
2018-11-03T14:51:17.190Z,28.63
2018-11-03T14:53:45.660Z,28.77
2018-11-03T14:56:14.206Z,29.17
2018-11-03T14:58:42.818Z,29.50
2018-11-03T15:01:11.396Z,30.73
2018-11-03T15:03:39.823Z,31.83
2018-11-03T15:06:08.265Z,31.80
2018-11-03T15:08:36.804Z,30.83
2018-11-03T15:11:05.526Z,32.30
2018-11-03T15:13:34.074Z,31.93
2018-11-03T15:16:02.746Z,32.53
2018-11-03T15:18:31.192Z,32.97
2018-11-03T15:20:59.637Z,30.93
2018-11-03T15:23:28.075Z,33.23
2018-11-03T15:25:56.564Z,33.57
2018-11-03T15:28:25.244Z,30.47
2018-11-03T15:30:53.711Z,35.87
2018-11-03T15:33:22.152Z,29.87
2018-11-03T15:35:50.740Z,33.87
2018-11-03T15:38:19.159Z,33.00
2018-11-03T15:40:47.607Z,35.43
2018-11-03T15:43:16.027Z,89.80
2018-11-03T15:45:44.503Z,175.57
2018-11-03T15:48:13.051Z,37.97
2018-11-03T15:50:46.793Z,35.47
2018-11-03T15:53:15.269Z,37.70
2018-11-03T15:55:43.807Z,34.23
2018-11-03T15:58:12.529Z,37.80
2018-11-03T16:00:40.984Z,32.90
2018-11-03T16:03:09.573Z,46.43
2018-11-03T16:05:37.988Z,40.50
2018-11-03T16:08:06.516Z,40.77
2018-11-03T16:10:34.944Z,33.90
2018-11-03T16:13:03.382Z,40.30
2018-11-03T16:15:31.776Z,33.47
2018-11-03T16:18:00.498Z,34.27
2018-11-03T16:20:28.901Z,39.83
2018-11-03T16:22:57.304Z,36.73
2018-11-03T16:25:25.727Z,38.07
2018-11-03T16:27:54.167Z,38.23
2018-11-03T16:30:22.597Z,36.43
2018-11-03T16:32:51.107Z,39.07
2018-11-03T16:35:19.648Z,39.37
2018-11-03T16:37:48.303Z,34.63
2018-11-03T16:40:16.788Z,42.73
2018-11-03T16:42:45.784Z,42.80
2018-11-03T16:45:15.446Z,37.70
2018-11-03T16:47:44.173Z,38.67
2018-11-03T16:50:13.602Z,39.20
2018-11-03T16:52:42.272Z,36.57
2018-11-03T16:55:11.992Z,35.77
2018-11-03T16:57:40.782Z,37.73
2018-11-03T17:00:11.500Z,40.53
2018-11-03T17:02:40.328Z,39.20
2018-11-03T17:05:09.932Z,36.43
2018-11-03T17:07:38.360Z,38.37
2018-11-03T17:10:08.898Z,42.00
2018-11-03T17:12:37.834Z,40.73
2018-11-03T17:15:06.565Z,44.23
2018-11-03T17:17:35.080Z,39.07
2018-11-03T17:20:03.502Z,45.47
2018-11-03T17:22:31.937Z,46.00
2018-11-03T17:25:00.367Z,58.97
2018-11-03T17:27:29.333Z,45.03
2018-11-03T17:29:57.760Z,42.53
2018-11-03T17:32:26.229Z,43.07
2018-11-03T17:34:54.938Z,43.33
2018-11-03T17:37:23.686Z,42.43
2018-11-03T17:39:52.164Z,42.37
2018-11-03T17:42:20.625Z,43.03
2018-11-03T17:44:49.095Z,39.93
2018-11-03T17:47:17.610Z,43.03
2018-11-03T17:49:46.059Z,39.13
2018-11-03T17:52:14.580Z,39.80
2018-11-03T17:54:43.099Z,47.20
2018-11-03T17:57:11.691Z,36.03
2018-11-03T17:59:40.142Z,41.00
2018-11-03T18:02:08.771Z,39.83
2018-11-03T18:04:37.210Z,38.57
2018-11-03T18:07:05.923Z,37.57
2018-11-03T18:09:34.382Z,38.07
2018-11-03T18:12:03.169Z,42.07
2018-11-03T18:14:31.713Z,37.43
2018-11-03T18:17:00.388Z,38.60
2018-11-03T18:19:28.994Z,37.53
2018-11-03T18:21:57.813Z,38.17
2018-11-03T18:24:26.369Z,38.27
2018-11-03T18:26:54.880Z,38.80
2018-11-03T18:29:23.339Z,37.43
2018-11-03T18:31:51.789Z,38.37
2018-11-03T18:34:20.328Z,40.30
2018-11-03T18:36:48.929Z,36.93
2018-11-03T18:39:17.447Z,35.30
2018-11-03T18:41:46.216Z,34.67
2018-11-03T18:44:14.688Z,33.27
2018-11-03T18:46:43.169Z,31.83
2018-11-03T18:49:11.798Z,33.43
2018-11-03T18:51:40.371Z,31.07
2018-11-03T18:54:09.113Z,33.83
2018-11-03T18:56:37.840Z,34.20
2018-11-03T18:59:06.670Z,33.83
2018-11-03T19:01:35.160Z,32.63
2018-11-03T19:04:03.639Z,32.33
2018-11-03T19:06:32.169Z,31.27
2018-11-03T19:09:00.678Z,34.37
2018-11-03T19:11:29.132Z,33.03
2018-11-03T19:13:57.571Z,31.87
2018-11-03T19:16:25.988Z,32.67
2018-11-03T19:18:54.570Z,34.87
2018-11-03T19:21:23.100Z,33.70
2018-11-03T19:23:51.895Z,32.27
2018-11-03T19:26:20.400Z,32.23
2018-11-03T19:28:48.964Z,33.87
2018-11-03T19:31:17.372Z,34.30
2018-11-03T19:33:45.948Z,35.30
2018-11-03T19:36:14.517Z,34.67
2018-11-03T19:38:43.072Z,34.67
2018-11-03T19:41:11.616Z,36.60
2018-11-03T19:43:40.087Z,34.47
2018-11-03T19:46:08.594Z,35.57
2018-11-03T19:48:37.106Z,33.70
2018-11-03T19:51:05.700Z,31.57
2018-11-03T19:53:34.254Z,33.47
2018-11-03T19:56:02.732Z,37.47
2018-11-03T19:58:31.350Z,33.70
2018-11-03T20:00:59.922Z,38.37
2018-11-03T20:03:28.462Z,44.23
2018-11-03T20:05:57.099Z,43.67
2018-11-03T20:08:25.521Z,38.40
2018-11-03T20:10:54.014Z,35.43
2018-11-03T20:13:22.452Z,36.77
2018-11-03T20:15:50.911Z,34.47
2018-11-03T20:18:19.331Z,38.97
2018-11-03T20:20:47.821Z,42.63
2018-11-03T20:23:16.398Z,41.43
2018-11-03T20:25:45.247Z,41.50
2018-11-03T20:28:13.762Z,47.17
2018-11-03T20:30:42.225Z,47.03
2018-11-03T20:33:10.648Z,38.60
2018-11-03T20:35:39.184Z,37.20
2018-11-03T20:38:07.653Z,44.53
2018-11-03T20:40:36.106Z,56.47
2018-11-03T20:43:04.612Z,50.13
2018-11-03T20:45:33.134Z,46.60
2018-11-03T20:48:01.633Z,34.03
2018-11-03T20:50:30.237Z,32.80
2018-11-03T20:52:58.755Z,29.93
2018-11-03T20:55:27.253Z,35.83
2018-11-03T20:57:55.716Z,27.53
2018-11-03T21:00:24.312Z,33.70
2018-11-03T21:02:53.668Z,35.13
2018-11-03T21:05:22.348Z,42.03
2018-11-03T21:07:50.834Z,36.57
2018-11-03T21:10:19.502Z,30.23
2018-11-03T21:12:48.100Z,28.27
2018-11-03T21:15:16.679Z,28.80
2018-11-03T21:17:45.139Z,31.07
2018-11-03T21:20:13.553Z,32.13
2018-11-03T21:22:42.012Z,32.13
2018-11-03T21:25:10.575Z,29.57
2018-11-03T21:27:39.098Z,31.70
2018-11-03T21:30:09.131Z,31.07
2018-11-03T21:32:38.074Z,31.77
2018-11-03T21:35:07.243Z,35.33
2018-11-03T21:37:35.734Z,27.27
2018-11-03T21:40:04.486Z,26.30
2018-11-03T21:42:32.965Z,28.30
2018-11-03T21:45:01.517Z,26.33
2018-11-03T21:47:29.960Z,27.03
2018-11-03T21:49:58.400Z,24.47
2018-11-03T21:52:28.190Z,24.73
2018-11-03T21:54:56.603Z,32.87
2018-11-03T21:57:25.076Z,28.73
2018-11-03T21:59:53.527Z,30.63
2018-11-03T22:02:22.063Z,29.63
2018-11-03T22:04:50.494Z,30.67
2018-11-03T22:07:18.971Z,35.87
2018-11-03T22:09:47.547Z,33.63
2018-11-03T22:12:16.021Z,35.37
2018-11-03T22:14:44.531Z,36.73
2018-11-03T22:17:13.176Z,31.47
2018-11-03T22:19:41.662Z,36.73
2018-11-03T22:22:10.246Z,35.73
2018-11-03T22:24:38.827Z,36.60
2018-11-03T22:27:07.374Z,35.87
2018-11-03T22:29:35.920Z,35.53
2018-11-03T22:32:04.417Z,38.20
2018-11-03T22:34:32.939Z,36.00
2018-11-03T22:37:01.493Z,36.20
2018-11-03T22:39:29.983Z,35.43
2018-11-03T22:41:58.517Z,35.23
2018-11-03T22:44:27.152Z,34.30
2018-11-03T22:46:55.648Z,33.70
2018-11-03T22:49:24.102Z,34.73
2018-11-03T22:51:52.782Z,36.97
2018-11-03T22:54:21.380Z,36.70
2018-11-03T22:56:49.859Z,37.50
2018-11-03T22:59:22.679Z,38.93
2018-11-03T23:01:52.178Z,37.20
2018-11-03T23:04:20.900Z,36.30
2018-11-03T23:06:49.491Z,35.63
2018-11-03T23:09:17.920Z,35.23
2018-11-03T23:11:46.485Z,38.13
2018-11-03T23:14:15.109Z,33.43
2018-11-03T23:16:43.619Z,37.90
2018-11-03T23:19:12.398Z,39.63
2018-11-03T23:21:41.059Z,42.20
2018-11-03T23:24:09.633Z,39.10
2018-11-03T23:26:39.087Z,41.10
2018-11-03T23:29:07.773Z,42.40
2018-11-03T23:31:36.273Z,34.67
2018-11-03T23:34:04.853Z,40.60
2018-11-03T23:36:33.840Z,36.53
2018-11-03T23:39:02.551Z,38.90
2018-11-03T23:41:31.094Z,34.87
2018-11-03T23:43:59.559Z,35.00
2018-11-03T23:46:28.048Z,38.77
2018-11-03T23:48:56.608Z,37.77
2018-11-03T23:51:25.218Z,31.17
2018-11-03T23:53:53.691Z,35.27
2018-11-03T23:56:22.231Z,31.67
2018-11-03T23:58:50.677Z,36.47
